^^
Saratoga-Weather Station Historical Data
Daily Summary for December 21, 2021 Units:  Metric    English   Both
Daily Weekly Monthly Yearly Custom
  High: Low: Average:
Temperature: 2.5 °C °C -0.8 °C
Dew Point: -1.1 °C °C -2.7 °C
Humidity: 91% % 85%
Wind Speed: 6.4km/h km/h 0.5km/h
Wind Gust: 9.7km/h - -
Wind- - SSE
Pressure: 1025.1 hPa 0.0 hPa -
Precipitation: 0.0 mm    
Historical Graphs
 
 
Tabular Data for December 21, 2021
Time Temperature Dew Point Pressure Wind Wind Speed Wind Gust Humidity Rainfall Rate (Hourly) solar
00:03 -1.2 °C -2.6 °C 1025.1 hPa Calm     90% 0.0 mm 0 W/m2
00:08 -1.2 °C -2.6 °C 1025.1 hPa Calm   1.6 km/h 90% 0.0 mm 0 W/m2
00:13 -1.2 °C -2.6 °C 1025.1 hPa Calm   1.6 km/h 90% 0.0 mm 0 W/m2
00:18 -1.2 °C -2.6 °C 1025.1 hPa Calm   1.6 km/h 90% 0.0 mm 0 W/m2
00:23 -1.2 °C -2.6 °C 1025.1 hPa Calm   1.6 km/h 90% 0.0 mm 0 W/m2
00:28 -1.2 °C -2.6 °C 1025.1 hPa Calm   1.6 km/h 90% 0.0 mm 0 W/m2
00:33 -1.1 °C -2.5 °C 1025.1 hPa Calm     90% 0.0 mm 0 W/m2
00:38 -1.1 °C -2.5 °C 1025.1 hPa Calm     90% 0.0 mm 0 W/m2
00:43 -1.2 °C -2.6 °C 1024.7 hPa Calm     90% 0.0 mm 0 W/m2
00:48 -1.3 °C -2.7 °C 1024.7 hPa Calm     90% 0.0 mm 0 W/m2
00:53 -1.3 °C -2.7 °C 1024.7 hPa Calm     90% 0.0 mm 0 W/m2
00:58 -1.4 °C -2.8 °C 1024.7 hPa Calm     90% 0.0 mm 0 W/m2
01:03 -1.4 °C -2.8 °C 1024.7 hPa Calm     90% 0.0 mm 0 W/m2
01:08 -1.6 °C -3 °C 1024.7 hPa Calm     90% 0.0 mm 0 W/m2
01:13 -1.6 °C -3 °C 1024.7 hPa Calm     90% 0.0 mm 0 W/m2
01:18 -1.6 °C -2.9 °C 1024.7 hPa Calm     91% 0.0 mm 0 W/m2
01:23 -1.7 °C -3 °C 1024.7 hPa Calm     91% 0.0 mm 0 W/m2
01:28 -1.7 °C -3 °C 1024.7 hPa Calm     91% 0.0 mm 0 W/m2
01:33 -1.7 °C -3 °C 1024.4 hPa Calm     91% 0.0 mm 0 W/m2
01:38 -1.7 °C -3 °C 1024.4 hPa Calm   1.6 km/h 91% 0.0 mm 0 W/m2
01:43 -1.6 °C -2.9 °C 1024.4 hPa Calm     91% 0.0 mm 0 W/m2
01:48 -1.6 °C -2.9 °C 1024.4 hPa Calm     91% 0.0 mm 0 W/m2
01:53 -1.6 °C -2.9 °C 1024.4 hPa Calm   3.2 km/h 91% 0.0 mm 0 W/m2
01:58 -1.5 °C -2.8 °C 1024.4 hPa Calm     91% 0.0 mm 0 W/m2
02:03 -1.4 °C -2.7 °C 1024.4 hPa Calm   3.2 km/h 91% 0.0 mm 0 W/m2
02:08 -1.3 °C -2.6 °C 1024.4 hPa North 3.2 km/h 4.8 km/h 91% 0.0 mm 0 W/m2
02:13 -1.2 °C -2.5 °C 1024.4 hPa Calm   3.2 km/h 91% 0.0 mm 0 W/m2
02:18 -1 °C -2.4 °C 1024.4 hPa Calm     90% 0.0 mm 0 W/m2
02:23 -1 °C -2.4 °C 1024.4 hPa Calm   3.2 km/h 90% 0.0 mm 0 W/m2
02:28 -1 °C -2.6 °C 1024.4 hPa Calm     89% 0.0 mm 0 W/m2
02:33 -1 °C -2.6 °C 1024.4 hPa Calm   1.6 km/h 89% 0.0 mm 0 W/m2
02:38 -1.1 °C -2.7 °C 1024.4 hPa Calm     89% 0.0 mm 0 W/m2
02:43 -1.2 °C -2.9 °C 1024.4 hPa Calm     88% 0.0 mm 0 W/m2
02:48 -1.4 °C -3 °C 1024.4 hPa Calm   1.6 km/h 89% 0.0 mm 0 W/m2
03:07 -1.5 °C -2.9 °C 1024.4 hPa Calm     90% 0.0 mm 0 W/m2
03:12 -1.5 °C -2.9 °C 1024.4 hPa Calm     90% 0.0 mm 0 W/m2
03:17 -1.4 °C -2.8 °C 1024.4 hPa Calm   3.2 km/h 90% 0.0 mm 0 W/m2
03:23 -1.3 °C -2.7 °C 1024.4 hPa Calm   1.6 km/h 90% 0.0 mm 0 W/m2
03:28 -1.2 °C -2.6 °C 1024.4 hPa Calm   1.6 km/h 90% 0.0 mm 0 W/m2
03:33 -1.1 °C -2.5 °C 1024.4 hPa Calm   1.6 km/h 90% 0.0 mm 0 W/m2
03:38 -1.1 °C -2.5 °C 1024.4 hPa Calm   3.2 km/h 90% 0.0 mm 0 W/m2
03:43 -1.1 °C -2.7 °C 1024.0 hPa ENE 1.4 km/h 1.6 km/h 89% 0.0 mm 0 W/m2
03:48 -1.1 °C -2.7 °C 1024.0 hPa Calm   3.2 km/h 89% 0.0 mm 0 W/m2
03:53 -1.1 °C -2.7 °C 1024.0 hPa Calm   1.6 km/h 89% 0.0 mm 0 W/m2
03:58 -1.1 °C -2.8 °C 1024.0 hPa Calm   3.2 km/h 88% 0.0 mm 0 W/m2
04:03 -1.1 °C -2.8 °C 1024.0 hPa Calm     88% 0.0 mm 0 W/m2
04:08 -1.1 °C -2.8 °C 1024.4 hPa Calm     88% 0.0 mm 0 W/m2
04:13 -1.1 °C -2.8 °C 1024.0 hPa West 1.4 km/h 3.2 km/h 88% 0.0 mm 0 W/m2
04:18 -1.2 °C -2.9 °C 1024.4 hPa Calm   1.6 km/h 88% 0.0 mm 0 W/m2
04:23 -1.1 °C -2.8 °C 1024.0 hPa North 1.4 km/h 1.6 km/h 88% 0.0 mm 0 W/m2
04:28 -1.1 °C -2.8 °C 1024.0 hPa Calm   3.2 km/h 88% 0.0 mm 0 W/m2
04:33 -1.1 °C -3 °C 1024.0 hPa Calm     87% 0.0 mm 0 W/m2
04:38 -1.1 °C -3 °C 1024.0 hPa West 1.4 km/h 3.2 km/h 87% 0.0 mm 0 W/m2
04:43 -1.1 °C -3 °C 1024.0 hPa Calm   1.6 km/h 87% 0.0 mm 0 W/m2
04:48 -1.2 °C -3.1 °C 1024.0 hPa West 1.4 km/h 3.2 km/h 87% 0.0 mm 0 W/m2
04:53 -1.2 °C -3.1 °C 1024.0 hPa Calm   1.6 km/h 87% 0.0 mm 0 W/m2
04:58 -1.3 °C -3.2 °C 1024.0 hPa Calm     87% 0.0 mm 0 W/m2
05:03 -1.4 °C -3.3 °C 1024.0 hPa Calm     87% 0.0 mm 0 W/m2
05:08 -1.5 °C -3.2 °C 1024.0 hPa Calm   1.6 km/h 88% 0.0 mm 0 W/m2
05:13 -1.6 °C -3.3 °C 1024.0 hPa Calm   1.6 km/h 88% 0.0 mm 0 W/m2
05:18 -1.7 °C -3.4 °C 1024.0 hPa Calm     88% 0.0 mm 0 W/m2
05:23 -1.8 °C -3.5 °C 1024.0 hPa Calm   3.2 km/h 88% 0.0 mm 0 W/m2
05:28 -1.8 °C -3.5 °C 1024.0 hPa South 1.4 km/h 1.6 km/h 88% 0.0 mm 0 W/m2
05:33 -1.8 °C -3.5 °C 1024.0 hPa West 1.4 km/h 3.2 km/h 88% 0.0 mm 0 W/m2
05:38 -1.8 °C -3.5 °C 1024.0 hPa Calm     88% 0.0 mm 0 W/m2
05:43 -1.8 °C -3.5 °C 1024.0 hPa Calm   1.6 km/h 88% 0.0 mm 0 W/m2
05:48 -1.8 °C -3.5 °C 1024.0 hPa Calm     88% 0.0 mm 0 W/m2
05:53 -1.9 °C -3.6 °C 1024.0 hPa West 1.4 km/h 1.6 km/h 88% 0.0 mm 0 W/m2
05:58 -1.9 °C -3.6 °C 1024.0 hPa Calm   1.6 km/h 88% 0.0 mm 0 W/m2
06:03 -2 °C -3.6 °C 1024.0 hPa Calm   1.6 km/h 89% 0.0 mm 0 W/m2
06:08 -2 °C -3.6 °C 1024.0 hPa Calm     89% 0.0 mm 0 W/m2
06:13 -2 °C -3.6 °C 1024.0 hPa Calm   3.2 km/h 89% 0.0 mm 0 W/m2
06:18 -1.9 °C -3.5 °C 1024.0 hPa West 1.4 km/h 1.6 km/h 89% 0.0 mm 0 W/m2
06:23 -1.9 °C -3.5 °C 1024.0 hPa Calm   3.2 km/h 89% 0.0 mm 0 W/m2
06:28 -2 °C -3.7 °C 1024.0 hPa Calm   1.6 km/h 88% 0.0 mm 0 W/m2
06:33 -2 °C -3.7 °C 1023.7 hPa Calm     88% 0.0 mm 0 W/m2
06:38 -2 °C -3.6 °C 1023.7 hPa Calm     89% 0.0 mm 0 W/m2
06:44 -2.1 °C -3.8 °C 1023.7 hPa Calm     88% 0.0 mm 0 W/m2
06:49 -2.2 °C -3.9 °C 1023.7 hPa Calm     88% 0.0 mm 0 W/m2
06:54 -2.3 °C -4 °C 1024.0 hPa Calm     88% 0.0 mm 0 W/m2
06:59 -2.4 °C -4 °C 1024.0 hPa Calm   1.6 km/h 89% 0.0 mm 0 W/m2
07:04 -2.5 °C -4.1 °C 1024.0 hPa Calm     89% 0.0 mm 0 W/m2
07:09 -2.6 °C -4.2 °C 1024.0 hPa Calm     89% 0.0 mm 0 W/m2
07:14 -2.7 °C -4.3 °C 1024.0 hPa WSW 1.4 km/h 1.6 km/h 89% 0.0 mm 0 W/m2
07:19 -2.7 °C -4.1 °C 1024.0 hPa Calm     90% 0.0 mm 0 W/m2
07:24 -2.7 °C -4.1 °C 1024.0 hPa Calm     90% 0.0 mm 0 W/m2
07:29 -2.7 °C -4.1 °C 1024.0 hPa Calm     90% 0.0 mm 0 W/m2
07:34 -2.7 °C -4.1 °C 1024.0 hPa Calm     90% 0.0 mm 0 W/m2
07:39 -2.7 °C -4.1 °C 1024.0 hPa Calm     90% 0.0 mm 0 W/m2
07:59 -2.8 °C -4.2 °C 1024.0 hPa Calm     90% 0.0 mm 0 W/m2
08:04 -2.8 °C -4.2 °C 1024.0 hPa Calm     90% 0.0 mm 0 W/m2
08:09 -2.8 °C -4.2 °C 1024.0 hPa Calm     90% 0.0 mm 0 W/m2
08:14 -2.8 °C -4.1 °C 1024.0 hPa Calm     91% 0.0 mm 0 W/m2
08:19 -2.7 °C -4 °C 1024.0 hPa Calm     91% 0.0 mm 0 W/m2
08:24 -2.7 °C -4.1 °C 1024.0 hPa Calm     90% 0.0 mm 0 W/m2
08:29 -2.7 °C -4.1 °C 1024.0 hPa Calm     90% 0.0 mm 0 W/m2
08:34 -2.7 °C -4.1 °C 1024.0 hPa Calm     90% 0.0 mm 5 W/m2
08:39 -2.7 °C -4.1 °C 1024.4 hPa Calm     90% 0.0 mm 7 W/m2
08:44 -2.7 °C -4.1 °C 1024.4 hPa Calm     90% 0.0 mm 7 W/m2
08:49 -2.7 °C -4.1 °C 1024.0 hPa Calm     90% 0.0 mm 7 W/m2
08:54 -2.7 °C -4.1 °C 1024.4 hPa Calm     90% 0.0 mm 7 W/m2
08:59 -2.7 °C -4.1 °C 1024.4 hPa Calm     90% 0.0 mm 7 W/m2
09:04 °C °C 0.0 hPa Calm     % 0.0 mm W/m2
09:09 -2.8 °C -4.2 °C 1024.4 hPa Calm     90% 0.0 mm 12 W/m2
09:14 -2.8 °C -4.2 °C 1024.4 hPa Calm   1.6 km/h 90% 0.0 mm 12 W/m2
09:19 -2.8 °C -4.2 °C 1024.4 hPa Calm     90% 0.0 mm 14 W/m2
09:24 -2.8 °C -4.1 °C 1024.4 hPa Calm   1.6 km/h 91% 0.0 mm 14 W/m2
09:30 -2.8 °C -4.1 °C 1024.4 hPa Calm     91% 0.0 mm 16 W/m2
09:35 -2.8 °C -4.1 °C 1024.4 hPa Calm     91% 0.0 mm 16 W/m2
09:40 -2.7 °C -4 °C 1024.4 hPa Calm   1.6 km/h 91% 0.0 mm 16 W/m2
09:45 -2.7 °C -4 °C 1024.4 hPa Calm   3.2 km/h 91% 0.0 mm 16 W/m2
09:50 -2.5 °C -3.8 °C 1024.4 hPa Calm     91% 0.0 mm 18 W/m2
09:55 -2.4 °C -3.7 °C 1024.4 hPa Calm   3.2 km/h 91% 0.0 mm 18 W/m2
10:00 -2.3 °C -3.7 °C 1024.4 hPa Calm   1.6 km/h 90% 0.0 mm 18 W/m2
10:05 -2.2 °C -3.6 °C 1024.7 hPa Calm   1.6 km/h 90% 0.0 mm 19 W/m2
10:10 -2.1 °C -3.5 °C 1024.7 hPa Calm   1.6 km/h 90% 0.0 mm 19 W/m2
10:15 -1.9 °C -3.3 °C 1024.7 hPa Calm   1.6 km/h 90% 0.0 mm 28 W/m2
10:20 -1.8 °C -3.4 °C 1024.7 hPa Calm   1.6 km/h 89% 0.0 mm 21 W/m2
10:25 -1.7 °C -3.3 °C 1024.4 hPa Calm     89% 0.0 mm 19 W/m2
10:30 -1.7 °C -3.3 °C 1024.7 hPa West 3.2 km/h 3.2 km/h 89% 0.0 mm 23 W/m2
10:35 -1.6 °C -3.2 °C 1024.7 hPa NNW 3.2 km/h 3.2 km/h 89% 0.0 mm 25 W/m2
10:40 -1.4 °C -3.1 °C 1024.7 hPa West 4.7 km/h 6.4 km/h 88% 0.0 mm 21 W/m2
10:45 -1.2 °C -2.9 °C 1024.7 hPa NW 1.4 km/h 3.2 km/h 88% 0.0 mm 21 W/m2
10:50 -1.1 °C -2.8 °C 1024.7 hPa Calm   6.4 km/h 88% 0.0 mm 21 W/m2
10:55 -1 °C -2.9 °C 1024.7 hPa WNW 1.4 km/h 4.8 km/h 87% 0.0 mm 21 W/m2
11:00 -0.9 °C -2.8 °C 1024.7 hPa Calm   1.6 km/h 87% 0.0 mm 21 W/m2
11:05 -0.8 °C -2.7 °C 1024.7 hPa Calm   1.6 km/h 87% 0.0 mm 23 W/m2
11:10 -0.7 °C -2.6 °C 1024.7 hPa Calm   3.2 km/h 87% 0.0 mm 21 W/m2
11:15 -0.6 °C -2.5 °C 1024.7 hPa Calm   1.6 km/h 87% 0.0 mm 21 W/m2
11:20 -0.5 °C -2.6 °C 1024.4 hPa Calm   1.6 km/h 86% 0.0 mm 21 W/m2
11:25 -0.4 °C -2.5 °C 1024.4 hPa Calm   1.6 km/h 86% 0.0 mm 21 W/m2
11:30 -0.3 °C -2.4 °C 1024.4 hPa Calm   3.2 km/h 86% 0.0 mm 21 W/m2
11:35 -0.2 °C -2.3 °C 1024.4 hPa Calm   6.4 km/h 86% 0.0 mm 21 W/m2
11:40 -0.1 °C -2.3 °C 1024.4 hPa NW 1.4 km/h 1.6 km/h 85% 0.0 mm 28 W/m2
11:45 0.1 °C -2.1 °C 1024.4 hPa ENE 3.2 km/h 9.7 km/h 85% 0.0 mm 23 W/m2
11:50 0.2 °C -2 °C 1024.4 hPa Calm   1.6 km/h 85% 0.0 mm 26 W/m2
11:55 0.3 °C -1.9 °C 1024.4 hPa ENE 1.4 km/h 1.6 km/h 85% 0.0 mm 23 W/m2
12:00 0.3 °C -2.1 °C 1024.0 hPa Calm   3.2 km/h 84% 0.0 mm 23 W/m2
12:16 0.7 °C -1.7 °C 1024.0 hPa East 3.2 km/h 6.4 km/h 84% 0.0 mm 23 W/m2
12:21 0.8 °C -1.8 °C 1024.0 hPa SE 3.2 km/h 6.4 km/h 83% 0.0 mm 23 W/m2
12:26 1.1 °C -1.5 °C 1024.0 hPa East 3.2 km/h 8 km/h 83% 0.0 mm 23 W/m2
12:31 1.2 °C -1.5 °C 1023.7 hPa East 1.4 km/h 9.7 km/h 82% 0.0 mm 23 W/m2
12:36 1.3 °C -1.4 °C 1023.7 hPa ENE 4.7 km/h 6.4 km/h 82% 0.0 mm 23 W/m2
12:41 1.3 °C -1.6 °C 1023.7 hPa Calm   6.4 km/h 81% 0.0 mm 23 W/m2
12:46 1.4 °C -1.5 °C 1023.7 hPa East 3.2 km/h 3.2 km/h 81% 0.0 mm 23 W/m2
12:51 1.4 °C -1.5 °C 1023.4 hPa Calm   1.6 km/h 81% 0.0 mm 21 W/m2
12:56 1.5 °C -1.4 °C 1023.4 hPa NE 4.7 km/h 9.7 km/h 81% 0.0 mm 21 W/m2
13:01 1.6 °C -1.3 °C 1023.4 hPa Calm   3.2 km/h 81% 0.0 mm 21 W/m2
13:06 1.7 °C -1.4 °C 1023.4 hPa West 1.4 km/h 9.7 km/h 80% 0.0 mm 21 W/m2
13:11 1.7 °C -1.4 °C 1023.4 hPa ENE 1.4 km/h 4.8 km/h 80% 0.0 mm 21 W/m2
13:16 1.7 °C -1.4 °C 1023.4 hPa East 1.4 km/h 6.4 km/h 80% 0.0 mm 21 W/m2
13:21 1.8 °C -1.3 °C 1023.4 hPa Calm   1.6 km/h 80% 0.0 mm 21 W/m2
13:26 1.8 °C -1.3 °C 1023.4 hPa WNW 1.4 km/h 3.2 km/h 80% 0.0 mm 21 W/m2
13:31 1.8 °C -1.3 °C 1023.4 hPa ENE 3.2 km/h 4.8 km/h 80% 0.0 mm 21 W/m2
13:36 1.8 °C -1.3 °C 1023.4 hPa ESE 6.4 km/h 6.4 km/h 80% 0.0 mm 21 W/m2
13:41 1.9 °C -1.2 °C 1023.4 hPa Calm   4.8 km/h 80% 0.0 mm 21 W/m2
13:46 2.1 °C -1.2 °C 1023.4 hPa ENE 1.4 km/h 3.2 km/h 79% 0.0 mm 21 W/m2
13:51 2.1 °C -1.2 °C 1023.0 hPa East 4.7 km/h 9.7 km/h 79% 0.0 mm 21 W/m2
13:56 2.2 °C -1.1 °C 1023.0 hPa ENE 1.4 km/h 1.6 km/h 79% 0.0 mm 21 W/m2
14:01 2.2 °C -1.2 °C 1023.0 hPa East 1.4 km/h 8 km/h 78% 0.0 mm 19 W/m2
14:06 2.2 °C -1.2 °C 1023.0 hPa Calm   4.8 km/h 78% 0.0 mm 19 W/m2
14:12 2.2 °C -1.2 °C 1023.0 hPa Calm   4.8 km/h 78% 0.0 mm 19 W/m2
14:17 2.2 °C -1.1 °C 1023.0 hPa Calm   3.2 km/h 79% 0.0 mm 19 W/m2
14:22 2.2 °C -1.2 °C 1023.0 hPa Calm   3.2 km/h 78% 0.0 mm 19 W/m2
14:27 2.3 °C -1.1 °C 1023.0 hPa ESE 1.4 km/h 3.2 km/h 78% 0.0 mm 19 W/m2
14:32 2.3 °C -1.1 °C 1023.0 hPa Calm   3.2 km/h 78% 0.0 mm 19 W/m2
14:52 2.3 °C -1.1 °C 1022.7 hPa SE 1.4 km/h 4.8 km/h 78% 0.0 mm 18 W/m2
14:57 2.3 °C -1.1 °C 1022.7 hPa East 4.7 km/h 4.8 km/h 78% 0.0 mm 18 W/m2
15:02 2.4 °C -1.2 °C 1022.7 hPa NNE 1.4 km/h 4.8 km/h 77% 0.0 mm 18 W/m2
15:07 2.5 °C -1.1 °C 1022.7 hPa East 1.4 km/h 4.8 km/h 77% 0.0 mm 18 W/m2
15:12 2.5 °C -1.1 °C 1022.7 hPa Calm     77% 0.0 mm 16 W/m2
15:17 2.5 °C -1.1 °C 1022.7 hPa Calm   4.8 km/h 77% 0.0 mm 16 W/m2
15:32 2.4 °C -1.2 °C 1022.7 hPa Calm   1.6 km/h 77% 0.0 mm 16 W/m2
15:37 2.4 °C -1.2 °C 1022.7 hPa East 1.4 km/h 6.4 km/h 77% 0.0 mm 14 W/m2
15:42 2.3 °C -1.3 °C 1022.7 hPa Calm   3.2 km/h 77% 0.0 mm 14 W/m2
15:47 2.3 °C -1.1 °C 1022.7 hPa Calm     78% 0.0 mm 14 W/m2
15:52 2.2 °C -1.2 °C 1022.7 hPa Calm     78% 0.0 mm 12 W/m2
15:57 2 °C -1.3 °C 1022.7 hPa Calm     79% 0.0 mm 12 W/m2
16:02 1.9 °C -1.4 °C 1022.7 hPa Calm     79% 0.0 mm 12 W/m2
16:08 1.8 °C -1.5 °C 1022.7 hPa Calm     79% 0.0 mm 11 W/m2
16:13 1.7 °C -1.6 °C 1022.7 hPa NNE 1.4 km/h 3.2 km/h 79% 0.0 mm 11 W/m2
16:18 1.7 °C -1.6 °C 1022.7 hPa Calm   1.6 km/h 79% 0.0 mm 9 W/m2
16:23 1.8 °C -1.5 °C 1022.7 hPa Calm     79% 0.0 mm 7 W/m2
16:28 1.7 °C -1.6 °C 1022.7 hPa Calm     79% 0.0 mm 7 W/m2
16:39 °C °C 0.0 hPa Calm     % 0.0 mm W/m2
16:50 °C °C 0.0 hPa Calm     % 0.0 mm W/m2
17:05 1.1 °C -1.6 °C 1023.0 hPa Calm     82% 0.0 mm 0 W/m2
17:10 1.1 °C -1.6 °C 1023.4 hPa Calm   1.6 km/h 82% 0.0 mm 0 W/m2
18:17 -0.7 °C -2.6 °C 1023.7 hPa Calm   1.6 km/h 87% 0.0 mm 0 W/m2
18:22 -0.7 °C -2.4 °C 1023.7 hPa West 1.4 km/h 3.2 km/h 88% 0.0 mm 0 W/m2
21:11 -1.9 °C -3.5 °C 1024.7 hPa Calm     89% 0.0 mm 0 W/m2
21:16 -1.8 °C -3.4 °C 1024.7 hPa WSW 1.4 km/h 1.6 km/h 89% 0.0 mm 0 W/m2
22:31 -2.3 °C -3.6 °C 1025.1 hPa Calm     91% 0.0 mm 0 W/m2
22:36 -2.4 °C -3.7 °C 1025.1 hPa Calm   1.6 km/h 91% 0.0 mm 0 W/m2
Juneau County Weather
Compliments of Weather Underground - 4 mb